sensor_id;sensor_type;location;lat;lon;timestamp;pressure;altitude;pressure_sealevel;temperature;humidity
36972;BME280;40554;52.122;20.678;2022-10-26T00:00:44;100613.99;;;12.55;100.00
36972;BME280;40554;52.122;20.678;2022-10-26T00:03:01;100616.66;;;12.55;100.00
36972;BME280;40554;52.122;20.678;2022-10-26T00:05:17;100617.63;;;12.54;100.00
36972;BME280;40554;52.122;20.678;2022-10-26T00:07:33;100624.28;;;12.54;100.00
36972;BME280;40554;52.122;20.678;2022-10-26T00:09:49;100618.08;;;12.54;100.00
36972;BME280;40554;52.122;20.678;2022-10-26T00:12:06;100614.09;;;12.54;100.00
36972;BME280;40554;52.122;20.678;2022-10-26T00:14:22;100613.25;;;12.53;100.00
36972;BME280;40554;52.122;20.678;2022-10-26T00:16:38;100619.54;;;12.52;100.00
36972;BME280;40554;52.122;20.678;2022-10-26T00:18:55;100624.50;;;12.51;100.00
36972;BME280;40554;52.122;20.678;2022-10-26T00:21:12;100629.44;;;12.50;100.00
36972;BME280;40554;52.122;20.678;2022-10-26T00:23:28;100628.59;;;12.50;100.00
36972;BME280;40554;52.122;20.678;2022-10-26T00:25:54;100630.02;;;12.48;100.00
36972;BME280;40554;52.122;20.678;2022-10-26T00:28:11;100631.48;;;12.47;100.00
36972;BME280;40554;52.122;20.678;2022-10-26T00:30:27;100634.23;;;12.45;100.00
36972;BME280;40554;52.122;20.678;2022-10-26T00:32:43;100632.91;;;12.45;100.00
36972;BME280;40554;52.122;20.678;2022-10-26T00:35:00;100624.56;;;12.44;100.00
36972;BME280;40554;52.122;20.678;2022-10-26T00:37:16;100635.20;;;12.44;100.00
36972;BME280;40554;52.122;20.678;2022-10-26T00:39:32;100626.13;;;12.41;100.00
36972;BME280;40554;52.122;20.678;2022-10-26T00:41:49;100629.27;;;12.40;100.00
36972;BME280;40554;52.122;20.678;2022-10-26T00:47:05;100639.38;;;12.35;100.00
36972;BME280;40554;52.122;20.678;2022-10-26T00:49:22;100641.39;;;12.32;100.00
36972;BME280;40554;52.122;20.678;2022-10-26T00:51:45;100640.67;;;12.30;100.00
36972;BME280;40554;52.122;20.678;2022-10-26T00:54:06;100633.86;;;12.26;100.00
36972;BME280;40554;52.122;20.678;2022-10-26T00:56:26;100638.42;;;12.24;100.00
36972;BME280;40554;52.122;20.678;2022-10-26T00:58:44;100638.65;;;12.20;100.00
36972;BME280;40554;52.122;20.678;2022-10-26T01:01:00;100640.95;;;12.19;100.00
36972;BME280;40554;52.122;20.678;2022-10-26T01:03:17;100641.89;;;12.18;100.00
36972;BME280;40554;52.122;20.678;2022-10-26T01:05:39;100643.34;;;12.17;100.00
36972;BME280;40554;52.122;20.678;2022-10-26T01:07:55;100640.78;;;12.15;100.00
36972;BME280;40554;52.122;20.678;2022-10-26T01:10:12;100644.05;;;12.13;100.00
36972;BME280;40554;52.122;20.678;2022-10-26T01:12:29;100644.98;;;12.12;100.00
36972;BME280;40554;52.122;20.678;2022-10-26T01:14:46;100642.45;;;12.11;100.00
36972;BME280;40554;52.122;20.678;2022-10-26T01:17:12;100649.20;;;12.09;100.00
36972;BME280;40554;52.122;20.678;2022-10-26T01:22:42;100644.46;;;12.07;100.00
36972;BME280;40554;52.122;20.678;2022-10-26T01:27:52;100641.09;;;12.05;100.00
36972;BME280;40554;52.122;20.678;2022-10-26T01:33:09;100651.91;;;12.02;100.00
36972;BME280;40554;52.122;20.678;2022-10-26T01:41:31;100652.61;;;11.98;100.00
36972;BME280;40554;52.122;20.678;2022-10-26T01:43:50;100646.09;;;11.97;100.00
36972;BME280;40554;52.122;20.678;2022-10-26T01:46:12;100652.34;;;11.96;100.00
36972;BME280;40554;52.122;20.678;2022-10-26T01:48:31;100649.33;;;11.95;100.00
36972;BME280;40554;52.122;20.678;2022-10-26T01:50:51;100648.00;;;11.95;100.00
36972;BME280;40554;52.122;20.678;2022-10-26T01:53:11;100654.25;;;11.94;100.00
36972;BME280;40554;52.122;20.678;2022-10-26T01:58:06;100656.91;;;11.94;100.00
36972;BME280;40554;52.122;20.678;2022-10-26T02:00:21;100662.12;;;11.95;100.00
36972;BME280;40554;52.122;20.678;2022-10-26T02:10:57;100665.84;;;11.93;100.00
36972;BME280;40554;52.122;20.678;2022-10-26T02:13:20;100665.48;;;11.92;100.00
36972;BME280;40554;52.122;20.678;2022-10-26T02:21:02;100661.81;;;11.87;100.00
36972;BME280;40554;52.122;20.678;2022-10-26T02:23:22;100661.37;;;11.81;100.00
36972;BME280;40554;52.122;20.678;2022-10-26T02:25:43;100661.37;;;11.81;100.00
36972;BME280;40554;52.122;20.678;2022-10-26T02:28:04;100663.63;;;11.80;100.00
36972;BME280;40554;52.122;20.678;2022-10-26T02:30:22;100662.42;;;11.78;100.00
36972;BME280;40554;52.122;20.678;2022-10-26T02:32:41;100666.50;;;11.76;100.00
36972;BME280;40554;52.122;20.678;2022-10-26T02:35:01;100671.06;;;11.74;100.00
36972;BME280;40554;52.122;20.678;2022-10-26T02:37:20;100675.17;;;11.73;100.00
36972;BME280;40554;52.122;20.678;2022-10-26T02:39:38;100678.28;;;11.72;100.00
36972;BME280;40554;52.122;20.678;2022-10-26T02:41:55;100677.92;;;11.71;100.00
36972;BME280;40554;52.122;20.678;2022-10-26T02:44:20;100677.16;;;11.69;100.00
36972;BME280;40554;52.122;20.678;2022-10-26T02:46:40;100681.16;;;11.69;100.00
36972;BME280;40554;52.122;20.678;2022-10-26T02:48:56;100678.50;;;11.69;100.00
36972;BME280;40554;52.122;20.678;2022-10-26T02:51:19;100677.37;;;11.66;100.00
36972;BME280;40554;52.122;20.678;2022-10-26T02:53:52;100677.86;;;11.66;100.00
36972;BME280;40554;52.122;20.678;2022-10-26T02:56:27;100682.33;;;11.65;100.00
36972;BME280;40554;52.122;20.678;2022-10-26T02:58:49;100682.16;;;11.61;100.00
36972;BME280;40554;52.122;20.678;2022-10-26T03:01:08;100687.10;;;11.60;100.00
36972;BME280;40554;52.122;20.678;2022-10-26T03:03:24;100688.25;;;11.56;100.00
36972;BME280;40554;52.122;20.678;2022-10-26T03:05:42;100694.44;;;11.57;100.00
36972;BME280;40554;52.122;20.678;2022-10-26T03:07:58;100690.19;;;11.54;100.00
36972;BME280;40554;52.122;20.678;2022-10-26T03:10:15;100697.19;;;11.55;100.00
36972;BME280;40554;52.122;20.678;2022-10-26T03:12:31;100692.23;;;11.56;100.00
36972;BME280;40554;52.122;20.678;2022-10-26T03:14:48;100698.03;;;11.56;100.00
36972;BME280;40554;52.122;20.678;2022-10-26T03:17:04;100698.03;;;11.56;100.00
36972;BME280;40554;52.122;20.678;2022-10-26T03:19:20;100704.19;;;11.56;100.00
36972;BME280;40554;52.122;20.678;2022-10-26T03:21:36;100702.41;;;11.57;100.00
36972;BME280;40554;52.122;20.678;2022-10-26T03:23:53;100702.41;;;11.57;100.00
36972;BME280;40554;52.122;20.678;2022-10-26T03:26:09;100705.52;;;11.56;100.00
36972;BME280;40554;52.122;20.678;2022-10-26T03:28:26;100696.83;;;11.54;100.00
36972;BME280;40554;52.122;20.678;2022-10-26T03:30:42;100713.03;;;11.57;100.00
36972;BME280;40554;52.122;20.678;2022-10-26T03:32:58;100712.55;;;11.57;100.00
36972;BME280;40554;52.122;20.678;2022-10-26T03:35:14;100714.63;;;11.59;100.00
36972;BME280;40554;52.122;20.678;2022-10-26T03:37:31;100715.08;;;11.59;100.00
36972;BME280;40554;52.122;20.678;2022-10-26T03:39:47;100722.96;;;11.60;100.00
36972;BME280;40554;52.122;20.678;2022-10-26T03:42:03;100721.63;;;11.60;100.00
36972;BME280;40554;52.122;20.678;2022-10-26T03:44:19;100721.63;;;11.60;100.00
36972;BME280;40554;52.122;20.678;2022-10-26T03:46:36;100722.48;;;11.61;100.00
36972;BME280;40554;52.122;20.678;2022-10-26T03:48:52;100727.30;;;11.61;100.00
36972;BME280;40554;52.122;20.678;2022-10-26T03:51:08;100732.53;;;11.63;100.00
36972;BME280;40554;52.122;20.678;2022-10-26T03:53:25;100731.69;;;11.62;100.00
36972;BME280;40554;52.122;20.678;2022-10-26T03:55:45;100725.89;;;11.63;100.00
36972;BME280;40554;52.122;20.678;2022-10-26T03:58:01;100728.42;;;11.64;100.00
36972;BME280;40554;52.122;20.678;2022-10-26T04:00:18;100730.72;;;11.63;100.00
36972;BME280;40554;52.122;20.678;2022-10-26T04:02:34;100733.38;;;11.63;100.00
36972;BME280;40554;52.122;20.678;2022-10-26T04:04:50;100736.03;;;11.63;100.00
36972;BME280;40554;52.122;20.678;2022-10-26T04:07:06;100733.86;;;11.63;100.00
36972;BME280;40554;52.122;20.678;2022-10-26T04:09:23;100733.86;;;11.63;100.00
36972;BME280;40554;52.122;20.678;2022-10-26T04:11:39;100725.05;;;11.62;100.00
36972;BME280;40554;52.122;20.678;2022-10-26T04:13:56;100728.64;;;11.61;100.00
36972;BME280;40554;52.122;20.678;2022-10-26T04:16:14;100725.98;;;11.61;100.00
36972;BME280;40554;52.122;20.678;2022-10-26T04:18:30;100727.91;;;11.59;100.00
36972;BME280;40554;52.122;20.678;2022-10-26T04:20:46;100733.59;;;11.60;100.00
36972;BME280;40554;52.122;20.678;2022-10-26T04:23:04;100734.07;;;11.60;100.00
36972;BME280;40554;52.122;20.678;2022-10-26T04:32:08;100737.59;;;11.53;100.00
36972;BME280;40554;52.122;20.678;2022-10-26T04:34:24;100733.45;;;11.49;100.00
36972;BME280;40554;52.122;20.678;2022-10-26T04:36:41;100740.66;;;11.47;100.00
36972;BME280;40554;52.122;20.678;2022-10-26T04:38:57;100738.01;;;11.47;100.00
36972;BME280;40554;52.122;20.678;2022-10-26T04:41:13;100739.55;;;11.44;100.00
36972;BME280;40554;52.122;20.678;2022-10-26T04:43:29;100741.45;;;11.42;100.00
36972;BME280;40554;52.122;20.678;2022-10-26T04:45:46;100740.33;;;11.39;100.00
36972;BME280;40554;52.122;20.678;2022-10-26T04:48:09;100742.13;;;11.38;100.00
36972;BME280;40554;52.122;20.678;2022-10-26T04:50:23;100749.25;;;11.38;100.00
36972;BME280;40554;52.122;20.678;2022-10-26T04:52:39;100750.19;;;11.37;100.00
36972;BME280;40554;52.122;20.678;2022-10-26T04:54:56;100743.55;;;11.37;100.00
36972;BME280;40554;52.122;20.678;2022-10-26T04:57:12;100749.82;;;11.36;100.00
36972;BME280;40554;52.122;20.678;2022-10-26T04:59:28;100750.39;;;11.34;100.00
36972;BME280;40554;52.122;20.678;2022-10-26T05:01:45;100751.72;;;11.34;100.00
36972;BME280;40554;52.122;20.678;2022-10-26T05:04:02;100757.15;;;11.32;100.00
36972;BME280;40554;52.122;20.678;2022-10-26T05:06:22;100755.91;;;11.30;100.00
36972;BME280;40554;52.122;20.678;2022-10-26T05:08:44;100764.56;;;11.27;100.00
36972;BME280;40554;52.122;20.678;2022-10-26T05:11:01;100761.91;;;11.27;100.00
36972;BME280;40554;52.122;20.678;2022-10-26T05:13:18;100770.35;;;11.26;100.00
36972;BME280;40554;52.122;20.678;2022-10-26T05:15:35;100773.94;;;11.25;100.00
36972;BME280;40554;52.122;20.678;2022-10-26T05:17:57;100771.77;;;11.25;100.00
36972;BME280;40554;52.122;20.678;2022-10-26T05:20:20;100776.31;;;11.23;100.00
36972;BME280;40554;52.122;20.678;2022-10-26T05:22:36;100781.73;;;11.21;100.00
36972;BME280;40554;52.122;20.678;2022-10-26T05:24:52;100781.34;;;11.20;100.00
36972;BME280;40554;52.122;20.678;2022-10-26T05:27:08;100788.94;;;11.19;100.00
36972;BME280;40554;52.122;20.678;2022-10-26T05:29:25;100790.75;;;11.19;100.00
36972;BME280;40554;52.122;20.678;2022-10-26T05:31:41;100796.54;;;11.18;100.00
36972;BME280;40554;52.122;20.678;2022-10-26T05:33:57;100793.13;;;11.16;100.00
36972;BME280;40554;52.122;20.678;2022-10-26T05:36:14;100803.74;;;11.16;100.00
36972;BME280;40554;52.122;20.678;2022-10-26T05:38:30;100803.34;;;11.15;100.00
36972;BME280;40554;52.122;20.678;2022-10-26T05:40:50;100807.24;;;11.17;100.00
36972;BME280;40554;52.122;20.678;2022-10-26T05:43:08;100795.78;;;11.16;100.00
36972;BME280;40554;52.122;20.678;2022-10-26T05:45:24;100803.26;;;11.17;100.00
36972;BME280;40554;52.122;20.678;2022-10-26T05:47:42;100807.72;;;11.16;100.00
36972;BME280;40554;52.122;20.678;2022-10-26T05:49:59;100805.44;;;11.17;100.00
36972;BME280;40554;52.122;20.678;2022-10-26T05:52:15;100806.28;;;11.18;100.00
36972;BME280;40554;52.122;20.678;2022-10-26T05:54:32;100806.77;;;11.17;100.00
36972;BME280;40554;52.122;20.678;2022-10-26T05:56:48;100814.73;;;11.17;100.00
36972;BME280;40554;52.122;20.678;2022-10-26T05:59:13;100820.03;;;11.17;100.00
36972;BME280;40554;52.122;20.678;2022-10-26T06:06:53;100830.45;;;11.20;100.00
36972;BME280;40554;52.122;20.678;2022-10-26T06:09:11;100830.94;;;11.20;100.00
36972;BME280;40554;52.122;20.678;2022-10-26T06:11:29;100837.56;;;11.20;100.00
36972;BME280;40554;52.122;20.678;2022-10-26T06:13:45;100836.72;;;11.19;100.00
36972;BME280;40554;52.122;20.678;2022-10-26T06:29:52;100841.67;;;11.18;100.00
36972;BME280;40554;52.122;20.678;2022-10-26T06:32:18;100825.26;;;11.04;100.00
36972;BME280;40554;52.122;20.678;2022-10-26T06:34:35;100848.67;;;11.19;100.00
36972;BME280;40554;52.122;20.678;2022-10-26T06:36:56;100848.19;;;11.20;100.00
36972;BME280;40554;52.122;20.678;2022-10-26T06:39:13;100848.30;;;11.18;100.00
36972;BME280;40554;52.122;20.678;2022-10-26T06:41:33;100846.09;;;11.18;100.00
36972;BME280;40554;52.122;20.678;2022-10-26T06:43:51;100851.89;;;11.17;100.00
36972;BME280;40554;52.122;20.678;2022-10-26T06:54:50;100853.98;;;11.19;100.00
36972;BME280;40554;52.122;20.678;2022-10-26T06:57:09;100862.30;;;11.20;100.00
36972;BME280;40554;52.122;20.678;2022-10-26T06:59:49;100864.03;;;11.21;100.00
36972;BME280;40554;52.122;20.678;2022-10-26T07:02:08;100868.46;;;11.21;100.00
36972;BME280;40554;52.122;20.678;2022-10-26T07:04:26;100868.94;;;11.20;100.00
36972;BME280;40554;52.122;20.678;2022-10-26T07:06:42;100869.34;;;11.21;100.00
36972;BME280;40554;52.122;20.678;2022-10-26T07:08:58;100872.73;;;11.23;100.00
36972;BME280;40554;52.122;20.678;2022-10-26T07:11:14;100874.45;;;11.24;100.00
36972;BME280;40554;52.122;20.678;2022-10-26T07:13:31;100873.48;;;11.25;100.00
36972;BME280;40554;52.122;20.678;2022-10-26T07:15:47;100870.75;;;11.27;100.00
36972;BME280;40554;52.122;20.678;2022-10-26T07:18:05;100871.59;;;11.27;100.00
36972;BME280;40554;52.122;20.678;2022-10-26T07:20:22;100869.31;;;11.28;100.00
36972;BME280;40554;52.122;20.678;2022-10-26T07:22:38;100872.36;;;11.29;100.00
36972;BME280;40554;52.122;20.678;2022-10-26T07:24:55;100872.25;;;11.31;100.00
36972;BME280;40554;52.122;20.678;2022-10-26T07:27:11;100872.16;;;11.33;100.00
36972;BME280;40554;52.122;20.678;2022-10-26T07:29:27;100874.82;;;11.33;100.00
36972;BME280;40554;52.122;20.678;2022-10-26T07:31:44;100877.47;;;11.33;100.00
36972;BME280;40554;52.122;20.678;2022-10-26T07:34:00;100883.15;;;11.34;100.00
36972;BME280;40554;52.122;20.678;2022-10-26T07:36:17;100885.72;;;11.35;100.00
36972;BME280;40554;52.122;20.678;2022-10-26T07:38:33;100881.63;;;11.37;100.00
36972;BME280;40554;52.122;20.678;2022-10-26T07:40:49;100880.69;;;11.38;100.00
36972;BME280;40554;52.122;20.678;2022-10-26T07:43:07;100885.80;;;11.41;100.00
36972;BME280;40554;52.122;20.678;2022-10-26T07:45:24;100884.84;;;11.42;100.00
36972;BME280;40554;52.122;20.678;2022-10-26T07:47:41;100884.27;;;11.44;100.00
36972;BME280;40554;52.122;20.678;2022-10-26T07:49:58;100882.83;;;11.45;100.00
36972;BME280;40554;52.122;20.678;2022-10-26T07:52:14;100882.38;;;11.46;100.00
36972;BME280;40554;52.122;20.678;2022-10-26T07:54:30;100883.11;;;11.48;100.00
36972;BME280;40554;52.122;20.678;2022-10-26T07:56:50;100878.28;;;11.47;100.00
36972;BME280;40554;52.122;20.678;2022-10-26T07:59:06;100891.08;;;11.48;100.00
36972;BME280;40554;52.122;20.678;2022-10-26T08:01:22;100893.28;;;11.48;100.00
36972;BME280;40554;52.122;20.678;2022-10-26T08:03:39;100893.65;;;11.49;100.00
36972;BME280;40554;52.122;20.678;2022-10-26T08:05:56;100898.88;;;11.51;100.00
36972;BME280;40554;52.122;20.678;2022-10-26T08:08:13;100902.47;;;11.50;100.00
36972;BME280;40554;52.122;20.678;2022-10-26T08:10:29;100898.88;;;11.51;100.00
36972;BME280;40554;52.122;20.678;2022-10-26T08:12:46;100910.23;;;11.53;100.00
36972;BME280;40554;52.122;20.678;2022-10-26T08:15:02;100910.52;;;11.56;100.00
36972;BME280;40554;52.122;20.678;2022-10-26T08:17:19;100917.07;;;11.57;100.00
36972;BME280;40554;52.122;20.678;2022-10-26T08:19:36;100916.50;;;11.59;100.00
36972;BME280;40554;52.122;20.678;2022-10-26T08:21:53;100912.88;;;11.60;100.00
36972;BME280;40554;52.122;20.678;2022-10-26T08:24:09;100915.34;;;11.63;100.00
36972;BME280;40554;52.122;20.678;2022-10-26T08:26:26;100910.79;;;11.65;100.00
36972;BME280;40554;52.122;20.678;2022-10-26T08:28:42;100907.93;;;11.68;100.00
36972;BME280;40554;52.122;20.678;2022-10-26T08:30:58;100905.19;;;11.70;100.00
36972;BME280;40554;52.122;20.678;2022-10-26T08:33:14;100908.58;;;11.72;100.00
36972;BME280;40554;52.122;20.678;2022-10-26T08:35:31;100912.47;;;11.73;100.00
36972;BME280;40554;52.122;20.678;2022-10-26T08:37:48;100916.25;;;11.76;100.00
36972;BME280;40554;52.122;20.678;2022-10-26T08:40:05;100908.77;;;11.76;100.00
36972;BME280;40554;52.122;20.678;2022-10-26T08:42:30;100914.45;;;11.77;100.00
36972;BME280;40554;52.122;20.678;2022-10-26T08:44:50;100914.72;;;11.80;100.00
36972;BME280;40554;52.122;20.678;2022-10-26T08:47:17;100918.02;;;11.83;100.00
36972;BME280;40554;52.122;20.678;2022-10-26T08:49:42;100917.00;;;11.86;100.00
36972;BME280;40554;52.122;20.678;2022-10-26T08:52:10;100919.49;;;11.89;100.00
36972;BME280;40554;52.122;20.678;2022-10-26T08:54:39;100919.45;;;11.96;100.00
36972;BME280;40554;52.122;20.678;2022-10-26T08:56:59;100924.55;;;11.99;100.00
36972;BME280;40554;52.122;20.678;2022-10-26T08:59:37;100918.59;;;12.03;100.00
36972;BME280;40554;52.122;20.678;2022-10-26T09:02:13;100929.73;;;12.08;100.00
36972;BME280;40554;52.122;20.678;2022-10-26T09:04:30;100923.07;;;12.15;100.00
36972;BME280;40554;52.122;20.678;2022-10-26T09:12:35;100919.49;;;12.29;100.00
36972;BME280;40554;52.122;20.678;2022-10-26T09:21:05;100936.52;;;12.46;100.00
36972;BME280;40554;52.122;20.678;2022-10-26T09:26:14;100939.09;;;12.60;100.00
36972;BME280;40554;52.122;20.678;2022-10-26T09:28:35;100941.80;;;12.66;100.00
36972;BME280;40554;52.122;20.678;2022-10-26T09:30:52;100942.44;;;12.70;100.00
36972;BME280;40554;52.122;20.678;2022-10-26T09:33:15;100946.13;;;12.74;100.00
36972;BME280;40554;52.122;20.678;2022-10-26T09:36:18;100946.75;;;12.78;100.00
36972;BME280;40554;52.122;20.678;2022-10-26T09:38:20;100944.27;;;12.82;100.00
36972;BME280;40554;52.122;20.678;2022-10-26T09:40:54;100950.14;;;12.87;100.00
36972;BME280;40554;52.122;20.678;2022-10-26T09:43:19;100952.45;;;12.92;100.00
36972;BME280;40554;52.122;20.678;2022-10-26T09:45:55;100947.94;;;12.99;100.00
36972;BME280;40554;52.122;20.678;2022-10-26T09:50:47;100961.34;;;13.11;100.00
36972;BME280;40554;52.122;20.678;2022-10-26T09:53:05;100956.56;;;13.16;100.00
36972;BME280;40554;52.122;20.678;2022-10-26T09:55:22;100954.82;;;13.22;100.00
36972;BME280;40554;52.122;20.678;2022-10-26T09:57:45;100960.23;;;13.27;100.00
36972;BME280;40554;52.122;20.678;2022-10-26T10:00:07;100961.21;;;13.32;100.00
36972;BME280;40554;52.122;20.678;2022-10-26T10:02:33;100959.78;;;13.34;100.00
36972;BME280;40554;52.122;20.678;2022-10-26T10:04:51;100968.04;;;13.36;100.00
36972;BME280;40554;52.122;20.678;2022-10-26T10:07:12;100965.73;;;13.37;100.00
36972;BME280;40554;52.122;20.678;2022-10-26T10:09:28;100968.56;;;13.41;100.00
36972;BME280;40554;52.122;20.678;2022-10-26T10:11:56;100962.05;;;13.45;100.00
36972;BME280;40554;52.122;20.678;2022-10-26T10:14:16;100965.59;;;13.51;100.00
36972;BME280;40554;52.122;20.678;2022-10-26T10:16:35;100953.41;;;13.55;100.00
36972;BME280;40554;52.122;20.678;2022-10-26T10:18:53;100955.02;;;13.57;100.00
36972;BME280;40554;52.122;20.678;2022-10-26T10:21:11;100955.98;;;13.62;100.00
36972;BME280;40554;52.122;20.678;2022-10-26T10:23:47;100961.75;;;13.68;100.00
36972;BME280;40554;52.122;20.678;2022-10-26T10:30:43;100952.22;;;13.77;100.00
36972;BME280;40554;52.122;20.678;2022-10-26T10:33:09;100950.77;;;13.79;100.00
36972;BME280;40554;52.122;20.678;2022-10-26T10:35:29;100950.20;;;13.86;100.00
36972;BME280;40554;52.122;20.678;2022-10-26T10:37:45;100955.44;;;13.88;100.00
36972;BME280;40554;52.122;20.678;2022-10-26T10:40:05;100949.85;;;13.85;100.00
36972;BME280;40554;52.122;20.678;2022-10-26T10:42:25;100951.93;;;13.87;100.00
36972;BME280;40554;52.122;20.678;2022-10-26T10:44:43;100950.62;;;13.93;100.00
36972;BME280;40554;52.122;20.678;2022-10-26T10:47:03;100951.73;;;13.96;100.00
36972;BME280;40554;52.122;20.678;2022-10-26T10:49:25;100948.34;;;14.00;100.00
36972;BME280;40554;52.122;20.678;2022-10-26T10:51:43;100958.20;;;14.05;100.00
36972;BME280;40554;52.122;20.678;2022-10-26T10:54:00;100957.61;;;14.07;100.00
36972;BME280;40554;52.122;20.678;2022-10-26T10:56:45;100950.36;;;14.09;100.00
36972;BME280;40554;52.122;20.678;2022-10-26T10:59:16;100953.15;;;14.13;100.00
36972;BME280;40554;52.122;20.678;2022-10-26T11:02:00;100957.15;;;14.13;100.00
36972;BME280;40554;52.122;20.678;2022-10-26T11:04:46;100953.50;;;14.14;100.00
36972;BME280;40554;52.122;20.678;2022-10-26T11:07:05;100950.64;;;14.17;100.00
36972;BME280;40554;52.122;20.678;2022-10-26T11:09:25;100963.58;;;14.16;100.00
36972;BME280;40554;52.122;20.678;2022-10-26T11:11:54;100960.43;;;14.16;100.00
36972;BME280;40554;52.122;20.678;2022-10-26T11:14:26;100959.35;;;14.19;100.00
36972;BME280;40554;52.122;20.678;2022-10-26T11:16:42;100956.84;;;14.23;100.00
36972;BME280;40554;52.122;20.678;2022-10-26T11:19:28;100960.25;;;14.25;100.00
36972;BME280;40554;52.122;20.678;2022-10-26T11:21:54;100961.70;;;14.29;100.00
36972;BME280;40554;52.122;20.678;2022-10-26T11:24:17;100965.38;;;14.34;100.00
36972;BME280;40554;52.122;20.678;2022-10-26T11:27:01;100959.91;;;14.35;100.00
36972;BME280;40554;52.122;20.678;2022-10-26T11:29:31;100961.00;;;14.38;100.00
36972;BME280;40554;52.122;20.678;2022-10-26T11:31:52;100962.58;;;14.35;100.00
36972;BME280;40554;52.122;20.678;2022-10-26T11:37:08;100967.30;;;14.32;100.00
36972;BME280;40554;52.122;20.678;2022-10-26T11:47:17;100967.66;;;14.33;100.00
36972;BME280;40554;52.122;20.678;2022-10-26T11:52:21;100970.86;;;14.44;100.00
36972;BME280;40554;52.122;20.678;2022-10-26T11:54:55;100964.69;;;14.49;100.00
36972;BME280;40554;52.122;20.678;2022-10-26T11:57:16;100964.38;;;14.53;100.00
36972;BME280;40554;52.122;20.678;2022-10-26T11:59:36;100970.95;;;14.55;100.00
36972;BME280;40554;52.122;20.678;2022-10-26T12:02:01;100969.63;;;14.55;100.00
36972;BME280;40554;52.122;20.678;2022-10-26T12:04:21;100967.55;;;14.53;100.00
36972;BME280;40554;52.122;20.678;2022-10-26T12:06:40;100975.80;;;14.55;100.00
36972;BME280;40554;52.122;20.678;2022-10-26T12:11:40;100974.00;;;14.61;100.00
36972;BME280;40554;52.122;20.678;2022-10-26T12:20:24;100977.49;;;14.56;100.00
36972;BME280;40554;52.122;20.678;2022-10-26T12:21:58;100984.75;;;14.54;100.00
36972;BME280;40554;52.122;20.678;2022-10-26T12:24:24;100980.88;;;14.53;100.00
36972;BME280;40554;52.122;20.678;2022-10-26T12:26:53;100986.78;;;14.51;100.00
36972;BME280;40554;52.122;20.678;2022-10-26T12:29:28;100987.38;;;14.49;100.00
36972;BME280;40554;52.122;20.678;2022-10-26T12:31:46;100995.02;;;14.48;100.00
36972;BME280;40554;52.122;20.678;2022-10-26T12:34:04;100986.42;;;14.50;100.00
36972;BME280;40554;52.122;20.678;2022-10-26T12:39:34;100987.62;;;14.51;100.00
36972;BME280;40554;52.122;20.678;2022-10-26T12:42:41;100993.45;;;14.51;100.00
36972;BME280;40554;52.122;20.678;2022-10-26T12:44:36;100990.23;;;14.53;100.00
36972;BME280;40554;52.122;20.678;2022-10-26T12:46:55;100986.24;;;14.58;100.00
36972;BME280;40554;52.122;20.678;2022-10-26T12:52:24;100972.32;;;14.66;100.00
36972;BME280;40554;52.122;20.678;2022-10-26T12:54:39;100979.13;;;14.76;100.00
36972;BME280;40554;52.122;20.678;2022-10-26T12:59:45;100970.89;;;14.84;100.00
36972;BME280;40554;52.122;20.678;2022-10-26T13:02:28;100973.80;;;14.87;100.00
36972;BME280;40554;52.122;20.678;2022-10-26T13:05:12;100968.85;;;14.88;100.00
36972;BME280;40554;52.122;20.678;2022-10-26T13:07:45;100975.28;;;14.85;100.00
36972;BME280;40554;52.122;20.678;2022-10-26T13:12:55;100982.56;;;14.95;100.00
36972;BME280;40554;52.122;20.678;2022-10-26T13:15:33;100981.23;;;14.95;100.00
36972;BME280;40554;52.122;20.678;2022-10-26T13:17:57;100979.55;;;14.94;100.00
36972;BME280;40554;52.122;20.678;2022-10-26T13:20:18;100971.03;;;14.89;100.00
36972;BME280;40554;52.122;20.678;2022-10-26T13:22:43;100976.22;;;14.84;100.00
36972;BME280;40554;52.122;20.678;2022-10-26T13:25:03;100977.56;;;14.84;100.00
36972;BME280;40554;52.122;20.678;2022-10-26T13:27:38;100977.10;;;14.85;100.00
36972;BME280;40554;52.122;20.678;2022-10-26T13:30:21;100982.90;;;14.84;100.00
36972;BME280;40554;52.122;20.678;2022-10-26T13:32:54;100971.87;;;14.83;100.00
36972;BME280;40554;52.122;20.678;2022-10-26T13:35:13;100970.53;;;14.83;100.00
36972;BME280;40554;52.122;20.678;2022-10-26T13:37:32;100976.48;;;14.87;100.00
36972;BME280;40554;52.122;20.678;2022-10-26T13:39:50;100974.05;;;14.90;100.00
36972;BME280;40554;52.122;20.678;2022-10-26T13:42:12;100969.70;;;14.89;100.00
36972;BME280;40554;52.122;20.678;2022-10-26T13:44:56;100976.22;;;14.84;100.00
36972;BME280;40554;52.122;20.678;2022-10-26T13:47:24;100982.55;;;14.83;100.00
36972;BME280;40554;52.122;20.678;2022-10-26T13:50:05;100979.87;;;14.83;100.00
36972;BME280;40554;52.122;20.678;2022-10-26T13:52:28;100989.22;;;14.83;100.00
36972;BME280;40554;52.122;20.678;2022-10-26T13:54:56;100990.20;;;14.82;100.00
36972;BME280;40554;52.122;20.678;2022-10-26T13:57:20;100989.11;;;14.79;100.00
36972;BME280;40554;52.122;20.678;2022-10-26T13:59:45;100988.95;;;14.75;100.00